Main page
METAR-TAF:

METAR-TAF

Airports :

St. George Municipal Airport

St. George, Utah, United States

latitude: 37-05N, longitude: 113-36W, elevation: 2939 ft

Current weather observation

The report was made 48 minutes ago, at 04:56 UTC
Wind 10 mph from the South/Southeast
Temperature 55°F
Humidity 28%
Pressure 29.90 in. Hg
Visibility: 10 miles
Clear sky

METAR: KSGU 020456Z AUTO 16009KT 10SM CLR 13/M05 A2990 RMK AO2 SLP112 T01281050

Time: 22:44 (05:44 UTC)

Forecast

The report was made 5 hours and 58 minutes ago, at 23:46 UTC
Forecast valid from 02 at 00 UTC to 02 at 24 UTC
Wind 23 mph from the Southwest with gusts up to 35 mph
Visibility: 6 miles
Clear sky
From 02 at 0200 UTC
Wind 16 mph from the South
Visibility: 6 miles
Clear sky
From 02 at 1700 UTC
Wind 29 mph from the Southwest with gusts up to 40 mph
Visibility: 6 miles
Scattered clouds at a height of 6000 ft

TAF: KSGU 012346Z 0200/0224 23020G30KT P6SM SKC FM020200 17014KT P6SM SKC FM021700 23025G35KT P6SM SCT060

Weather observations and forecasts of more than 4000 airports (METAR and TAF reports).

The available stations are represented by yellow and red dots on the map.

Hover mouse over dot to see the name of the station.

Then click to see weather observations and forecasts.

To change the map : click on the green buttons with a black cross to zoom in, on the green button with a dash to zoom out, or on the green arrows for adjacent maps.


METAR-TAF: